Time;durP1;ratioP1;P1;durP2;ratioP2;P2;SDS_P1;SDS_P2;PMS_P1;PMS_P2;Temp;Humidity;BMP_temperature;BMP_pressure;BME280_temperature;BME280_humidity;BME280_pressure;Samples;Min_cycle;Max_cycle;Signal;HPM_P1;HPM_P2
2024/01/24 00:00:20;;;;;;;0.55;0.55;;;;;;;3.40;94.07;95666.22;5041253;28;20216;-79
2024/01/24 00:02:53;;;;;;;0.20;0.20;;;;;;;3.40;93.45;95670.78;5045412;28;20212;-78
2024/01/24 00:05:20;;;;;;;0.63;0.63;;;;;;;3.44;93.28;95672.66;5049253;28;20188;-78
2024/01/24 00:07:47;;;;;;;0.20;0.20;;;;;;;3.41;92.96;95678.56;5044728;28;20212;-79
2024/01/24 00:10:15;;;;;;;0.20;0.20;;;;;;;3.35;93.15;95679.56;5040999;28;20750;-79
2024/01/24 00:12:42;;;;;;;0.20;0.20;;;;;;;3.49;92.97;95675.38;5045278;28;20276;-78
2024/01/24 00:15:11;;;;;;;0.20;0.20;;;;;;;3.50;92.40;95671.66;5049520;28;20778;-78
2024/01/24 00:17:40;;;;;;;0.20;0.20;;;;;;;3.41;92.67;95694.63;5047149;28;20251;-79
2024/01/24 00:20:09;;;;;;;0.20;0.20;;;;;;;3.34;92.41;95687.84;5038115;28;20200;-77
2024/01/24 00:22:36;;;;;;;0.20;0.20;;;;;;;3.34;92.42;95688.66;5045916;28;20208;-79
2024/01/24 00:25:03;;;;;;;0.47;0.47;;;;;;;3.35;92.60;95690.28;5046307;28;20200;-78
2024/01/24 00:27:29;;;;;;;0.20;0.20;;;;;;;3.32;92.48;95696.13;5045379;28;20222;-79
2024/01/24 00:29:59;;;;;;;0.30;0.30;;;;;;;3.42;92.22;95700.75;5045242;28;20200;-78
2024/01/24 00:32:27;;;;;;;0.20;0.20;;;;;;;3.49;91.93;95701.34;5036366;28;20607;-78
2024/01/24 00:34:54;;;;;;;0.20;0.20;;;;;;;3.21;93.26;95700.59;5037664;28;20287;-77
2024/01/24 00:37:23;;;;;;;0.20;0.20;;;;;;;3.34;92.90;95704.72;5037399;28;20256;-78
2024/01/24 00:39:51;;;;;;;0.43;0.43;;;;;;;3.30;91.99;95702.81;5036821;28;20211;-78
2024/01/24 00:42:18;;;;;;;0.20;0.20;;;;;;;3.16;92.65;95691.69;5032632;28;20255;-79
2024/01/24 00:44:50;;;;;;;0.60;0.60;;;;;;;3.34;92.68;95707.41;5037127;28;20204;-78
2024/01/24 00:47:20;;;;;;;0.20;0.20;;;;;;;3.15;92.67;95709.63;5035173;28;20228;-78
2024/01/24 00:49:48;;;;;;;0.20;0.20;;;;;;;3.15;93.25;95714.19;5037975;28;20228;-77
2024/01/24 00:52:15;;;;;;;0.20;0.20;;;;;;;3.12;92.77;95706.69;5035561;28;20257;-77
2024/01/24 00:54:42;;;;;;;0.30;0.30;;;;;;;3.05;92.83;95698.03;5033736;28;20204;-78
2024/01/24 00:57:09;;;;;;;0.20;0.20;;;;;;;2.90;93.38;95697.88;5038974;28;20228;-78
2024/01/24 00:59:36;;;;;;;0.20;0.20;;;;;;;3.00;92.83;95708.72;5033051;28;20204;-79
2024/01/24 01:02:02;;;;;;;0.20;0.20;;;;;;;2.96;91.93;95707.59;5036291;28;20211;-78
2024/01/24 01:04:29;;;;;;;0.20;0.20;;;;;;;3.03;92.23;95708.19;5032954;28;20227;-78
2024/01/24 01:07:00;;;;;;;0.57;0.57;;;;;;;2.99;93.15;95704.41;5034914;28;20196;-77
2024/01/24 01:09:27;;;;;;;0.28;0.28;;;;;;;2.88;93.27;95705.34;5035257;28;20673;-79
2024/01/24 01:11:54;;;;;;;0.93;0.85;;;;;;;2.96;92.69;95691.53;5032767;28;20672;-78
2024/01/24 01:14:21;;;;;;;0.20;0.20;;;;;;;2.74;93.07;95695.06;5031904;28;20208;-78
2024/01/24 01:16:51;;;;;;;0.20;0.20;;;;;;;2.92;92.52;95701.13;5036183;28;20231;-77
2024/01/24 01:19:21;;;;;;;1.08;0.95;;;;;;;2.84;92.82;95697.84;5035731;28;20208;-78
2024/01/24 01:21:47;;;;;;;0.20;0.20;;;;;;;2.73;93.06;95692.66;5035392;28;20220;-76
2024/01/24 01:24:18;;;;;;;0.30;0.30;;;;;;;2.89;93.16;95705.09;5046007;28;20204;-79
2024/01/24 01:26:45;;;;;;;0.20;0.20;;;;;;;2.83;93.43;95695.44;5043511;28;20213;-77
2024/01/24 01:29:12;;;;;;;0.20;0.20;;;;;;;2.80;92.76;95688.72;5049474;28;20539;-78
2024/01/24 01:31:38;;;;;;;0.20;0.20;;;;;;;2.77;93.40;95699.91;5050012;28;20521;-78
2024/01/24 01:34:05;;;;;;;0.20;0.20;;;;;;;2.79;92.99;95691.63;5047303;28;20226;-78
2024/01/24 01:36:32;;;;;;;0.20;0.20;;;;;;;2.74;93.56;95695.06;5044085;28;20235;-75
2024/01/24 01:38:59;;;;;;;0.20;0.20;;;;;;;2.84;93.23;95695.19;5047987;28;20203;-77
2024/01/24 01:41:30;;;;;;;0.20;0.20;;;;;;;2.98;93.18;95689.41;5047739;28;20199;-76
2024/01/24 01:43:57;;;;;;;0.20;0.20;;;;;;;2.88;93.00;95683.94;5050119;28;20558;-78
2024/01/24 01:46:25;;;;;;;0.55;0.55;;;;;;;2.78;93.04;95692.69;5037790;28;20195;-78
2024/01/24 01:48:54;;;;;;;0.20;0.20;;;;;;;2.71;93.93;95690.22;5045627;28;20216;-77
2024/01/24 01:51:21;;;;;;;0.20;0.20;;;;;;;2.66;93.54;95679.47;5043332;28;20204;-78
2024/01/24 01:53:49;;;;;;;0.20;0.20;;;;;;;2.69;94.19;95684.31;5043572;28;20821;-77
2024/01/24 01:56:19;;;;;;;0.40;0.40;;;;;;;2.77;93.99;95672.34;5045691;28;20223;-78
2024/01/24 01:58:48;;;;;;;0.20;0.20;;;;;;;2.69;93.70;95676.28;5042537;28;20204;-78
2024/01/24 02:01:16;;;;;;;0.40;0.40;;;;;;;2.58;93.68;95669.22;5043156;28;20211;-79
2024/01/24 02:03:44;;;;;;;0.22;0.22;;;;;;;2.51;94.12;95652.56;5043675;28;20199;-76
2024/01/24 02:06:11;;;;;;;0.30;0.30;;;;;;;2.57;93.54;95650.75;5044776;28;20204;-77
2024/01/24 02:08:39;;;;;;;0.10;0.10;;;;;;;2.48;93.91;95653.06;5047092;28;20204;-77
2024/01/24 02:11:06;;;;;;;0.30;0.30;;;;;;;2.35;94.52;95656.94;5048096;28;20281;-78
2024/01/24 02:13:41;;;;;;;0.20;0.20;;;;;;;2.60;93.76;95656.38;5048014;28;20199;-78
2024/01/24 02:16:13;;;;;;;0.20;0.20;;;;;;;2.58;93.32;95650.50;5044979;28;20318;-78
2024/01/24 02:18:41;;;;;;;0.30;0.30;;;;;;;2.59;92.93;95660.16;5045789;28;20553;-77
2024/01/24 02:21:08;;;;;;;0.20;0.20;;;;;;;2.62;92.71;95656.94;5043067;28;20204;-76
2024/01/24 02:23:38;;;;;;;0.65;0.65;;;;;;;2.57;92.68;95654.25;5047325;28;20664;-77
2024/01/24 02:26:06;;;;;;;0.20;0.20;;;;;;;2.61;92.55;95660.69;5047510;28;20279;-76
2024/01/24 02:28:33;;;;;;;0.30;0.30;;;;;;;2.54;91.80;95657.41;5042830;28;20207;-76
2024/01/24 02:31:00;;;;;;;0.40;0.40;;;;;;;2.56;92.24;95649.13;5044786;28;20211;-78
2024/01/24 02:33:27;;;;;;;0.20;0.20;;;;;;;2.56;91.71;95660.66;5042891;28;20596;-76
2024/01/24 02:35:53;;;;;;;0.30;0.30;;;;;;;2.58;92.25;95652.38;5048256;28;20204;-77
2024/01/24 02:38:20;;;;;;;0.20;0.20;;;;;;;2.65;91.61;95648.44;5043919;28;20311;-77
2024/01/24 02:40:47;;;;;;;2.67;0.55;;;;;;;2.63;91.14;95645.19;5044231;28;20212;-78
2024/01/24 02:43:15;;;;;;;0.30;0.30;;;;;;;2.69;91.14;95644.19;5043226;28;20208;-76
2024/01/24 02:45:42;;;;;;;0.20;0.20;;;;;;;2.50;91.74;95634.91;5043590;28;20211;-76
2024/01/24 02:48:09;;;;;;;0.22;0.22;;;;;;;2.56;91.79;95638.44;5046758;28;20200;-76
2024/01/24 02:50:36;;;;;;;0.20;0.20;;;;;;;2.57;91.28;95646.22;5044203;28;20585;-77
2024/01/24 02:53:03;;;;;;;0.20;0.20;;;;;;;2.53;90.84;95647.78;5044799;28;20200;-76
2024/01/24 02:55:30;;;;;;;0.50;0.50;;;;;;;2.50;91.16;95654.44;5046966;28;20204;-76
2024/01/24 02:57:57;;;;;;;0.40;0.40;;;;;;;2.46;91.32;95645.28;5043851;28;20311;-75
2024/01/24 03:00:26;;;;;;;0.20;0.20;;;;;;;2.64;90.98;95644.13;5046262;28;20196;-76
2024/01/24 03:02:53;;;;;;;0.20;0.20;;;;;;;2.68;91.01;95647.94;5046050;28;20216;-75
2024/01/24 03:05:20;;;;;;;0.20;0.20;;;;;;;2.68;90.23;95653.28;5044349;28;20257;-76
2024/01/24 03:07:48;;;;;;;0.68;0.68;;;;;;;2.79;90.25;95652.31;5044945;28;20646;-75
2024/01/24 03:10:15;;;;;;;0.20;0.20;;;;;;;2.55;90.08;95656.34;5041234;28;20232;-74
2024/01/24 03:12:42;;;;;;;0.20;0.20;;;;;;;2.47;90.93;95648.75;5039800;28;20196;-74
2024/01/24 03:15:10;;;;;;;0.20;0.20;;;;;;;2.54;90.92;95654.75;5044544;28;20215;-75
2024/01/24 03:17:38;;;;;;;0.20;0.20;;;;;;;2.47;90.91;95646.91;5039478;28;20224;-74
2024/01/24 03:20:07;;;;;;;0.30;0.30;;;;;;;2.35;91.43;95650.78;5044300;28;20211;-76
2024/01/24 03:22:34;;;;;;;0.20;0.20;;;;;;;2.29;91.11;95652.59;5038845;28;20216;-76
2024/01/24 03:25:01;;;;;;;0.20;0.20;;;;;;;2.28;91.26;95642.16;5044370;28;20210;-75
2024/01/24 03:27:28;;;;;;;0.30;0.30;;;;;;;2.39;90.83;95633.19;5044511;28;20222;-76
2024/01/24 03:29:55;;;;;;;0.20;0.20;;;;;;;2.39;90.80;95633.19;5047970;28;20207;-76
2024/01/24 03:32:22;;;;;;;0.20;0.20;;;;;;;2.32;90.74;95627.25;5047487;28;20207;-75
2024/01/24 03:34:57;;;;;;;0.20;0.20;;;;;;;2.45;90.65;95638.34;5050165;28;20595;-76
2024/01/24 03:37:24;;;;;;;0.40;0.40;;;;;;;2.36;90.27;95649.72;5040382;28;20227;-75
2024/01/24 03:39:51;;;;;;;0.20;0.20;;;;;;;2.34;90.96;95654.50;5047459;28;20215;-74
2024/01/24 03:42:18;;;;;;;0.57;0.57;;;;;;;2.45;90.99;95653.59;5046685;28;20204;-74
2024/01/24 03:44:45;;;;;;;0.20;0.20;;;;;;;2.42;90.58;95651.41;5047786;28;20211;-76
2024/01/24 03:47:12;;;;;;;0.20;0.20;;;;;;;2.29;90.75;95633.06;5050511;28;20204;-75
2024/01/24 03:49:39;;;;;;;0.22;0.22;;;;;;;2.47;90.65;95651.44;5048269;28;20469;-75
2024/01/24 03:52:09;;;;;;;0.30;0.30;;;;;;;2.48;90.22;95653.06;5048025;28;20200;-79
2024/01/24 03:54:36;;;;;;;0.20;0.20;;;;;;;2.49;90.03;95654.66;5048567;28;20680;-79
2024/01/24 03:57:03;;;;;;;0.20;0.20;;;;;;;2.36;90.13;95647.03;5052237;28;20250;-79
2024/01/24 03:59:30;;;;;;;0.20;0.20;;;;;;;2.39;90.39;95635.84;5049721;28;20207;-77
2024/01/24 04:01:57;;;;;;;0.30;0.30;;;;;;;2.53;89.88;95637.06;5047683;28;20204;-78
2024/01/24 04:04:24;;;;;;;0.30;0.30;;;;;;;2.48;89.49;95637.00;5049198;28;20204;-75
2024/01/24 04:06:51;;;;;;;0.30;0.30;;;;;;;2.45;89.79;95637.53;5049406;28;20557;-75
2024/01/24 04:09:19;;;;;;;0.20;0.20;;;;;;;2.61;89.33;95644.63;5046170;28;20668;-75
2024/01/24 04:11:46;;;;;;;0.20;0.20;;;;;;;2.57;88.70;95654.25;5042307;28;20271;-78
2024/01/24 04:14:13;;;;;;;0.25;0.25;;;;;;;3.45;100.00;95662.75;5042813;28;20213;-76
2024/01/24 04:16:40;;;;;;;0.20;0.20;;;;;;;4.31;100.00;95651.69;5041577;28;20704;-75
2024/01/24 04:19:08;;;;;;;0.20;0.20;;;;;;;4.64;100.00;95659.34;5044774;28;20319;-76
2024/01/24 04:21:41;;;;;;;0.20;0.20;;;;;;;3.20;87.94;95663.38;5038692;28;20660;-78
2024/01/24 04:24:08;;;;;;;0.20;0.20;;;;;;;2.76;88.06;95668.88;5048095;28;20219;-78
2024/01/24 04:26:36;;;;;;;0.30;0.30;;;;;;;2.69;89.35;95675.47;5047375;28;20204;-77
2024/01/24 04:29:03;;;;;;;0.20;0.20;;;;;;;2.53;89.33;95676.38;5046259;28;20203;-79
2024/01/24 04:31:31;;;;;;;0.38;0.38;;;;;;;2.63;88.82;95671.94;5037678;28;20212;-79
2024/01/24 04:33:58;;;;;;;0.20;0.20;;;;;;;2.45;89.05;95681.13;5034258;28;20237;-78
2024/01/24 04:36:25;;;;;;;0.40;0.40;;;;;;;2.43;89.34;95677.09;5038380;28;20212;-78
2024/01/24 04:38:52;;;;;;;0.40;0.40;;;;;;;2.46;89.42;95673.91;5042725;28;20227;-78
2024/01/24 04:41:19;;;;;;;1.90;0.50;;;;;;;2.42;90.09;95688.84;5040946;28;20620;-78
2024/01/24 04:43:48;;;;;;;0.20;0.20;;;;;;;2.37;90.04;95681.56;5043779;28;20207;-79
2024/01/24 04:46:15;;;;;;;0.20;0.20;;;;;;;2.43;89.55;95687.78;5033022;28;20204;-79
2024/01/24 04:48:42;;;;;;;0.32;0.32;;;;;;;2.20;90.08;95666.63;5036044;28;20425;-79
2024/01/24 04:51:10;;;;;;;0.30;0.30;;;;;;;2.27;90.04;95689.47;5042718;28;20287;-78
2024/01/24 04:53:38;;;;;;;0.20;0.20;;;;;;;2.34;90.07;95695.41;5044110;28;20236;-79
2024/01/24 04:56:05;;;;;;;0.20;0.20;;;;;;;2.25;90.54;95690.75;5044664;28;20598;-79
2024/01/24 04:58:32;;;;;;;0.20;0.20;;;;;;;2.26;90.44;95697.72;5043284;28;20231;-78
2024/01/24 05:01:00;;;;;;;0.20;0.20;;;;;;;2.33;90.62;95703.69;5042489;28;20237;-80
2024/01/24 05:03:27;;;;;;;0.20;0.20;;;;;;;2.28;91.01;95698.28;5041963;28;20710;-78
2024/01/24 05:05:54;;;;;;;2.30;2.15;;;;;;;2.34;90.41;95700.75;5047216;28;20295;-77
2024/01/24 05:08:21;;;;;;;0.20;0.20;;;;;;;2.28;91.48;95706.31;5029938;28;20543;-78
2024/01/24 05:10:48;;;;;;;0.22;0.22;;;;;;;2.32;91.26;95710.13;5025937;28;20607;-78
2024/01/24 05:13:15;;;;;;;0.57;0.57;;;;;;;2.25;91.34;95710.28;5042001;28;20235;-78
2024/01/24 05:15:41;;;;;;;0.30;0.30;;;;;;;2.38;91.11;95711.78;5040631;28;20212;-77
2024/01/24 05:18:10;;;;;;;0.88;0.88;;;;;;;2.47;90.90;95716.41;5044240;28;20255;-77
2024/01/24 05:20:38;;;;;;;0.22;0.22;;;;;;;2.37;90.77;95726.19;5041508;28;20294;-77
2024/01/24 05:23:05;;;;;;;0.35;0.35;;;;;;;2.41;90.62;95724.66;5047341;28;20717;-77
2024/01/24 05:25:32;;;;;;;0.95;0.95;;;;;;;2.44;90.16;95732.19;5053462;28;20216;-78
2024/01/24 05:27:58;;;;;;;0.38;0.38;;;;;;;2.35;90.43;95734.47;5036293;28;20283;-78
2024/01/24 05:30:26;;;;;;;0.30;0.30;;;;;;;2.43;89.75;95728.69;5041076;28;20219;-77
2024/01/24 05:32:55;;;;;;;0.20;0.20;;;;;;;2.34;90.39;95732.03;5049327;28;20259;-79
2024/01/24 05:35:24;;;;;;;0.30;0.30;;;;;;;2.46;89.98;95730.84;5041917;28;20208;-78
2024/01/24 05:37:52;;;;;;;0.20;0.20;;;;;;;2.65;89.92;95720.66;5045992;28;20239;-78
2024/01/24 05:40:19;;;;;;;0.20;0.20;;;;;;;2.56;89.61;95719.47;5032957;28;20204;-78
2024/01/24 05:42:45;;;;;;;0.20;0.20;;;;;;;2.70;89.01;95719.91;5049542;28;20215;-78
2024/01/24 05:45:13;;;;;;;0.30;0.30;;;;;;;2.66;89.04;95716.09;5047203;28;20204;-78
2024/01/24 05:47:40;;;;;;;0.20;0.20;;;;;;;2.58;89.59;95717.38;5053028;28;20208;-78
2024/01/24 05:50:12;;;;;;;0.10;0.10;;;;;;;2.68;89.18;95711.31;5047038;28;20557;-77
2024/01/24 05:52:42;;;;;;;0.57;0.57;;;;;;;3.46;100.00;95718.75;5044014;28;20239;-75
2024/01/24 05:55:10;;;;;;;0.50;0.50;;;;;;;3.36;94.80;95718.66;5037307;28;20578;-76
2024/01/24 05:57:39;;;;;;;0.20;0.20;;;;;;;3.99;100.00;95716.97;5034257;28;20220;-75
2024/01/24 06:00:08;;;;;;;1.23;0.50;;;;;;;3.18;89.16;95713.69;5029309;28;20208;-81
2024/01/24 06:02:35;;;;;;;0.20;0.20;;;;;;;2.87;88.46;95709.13;5046865;28;20204;-80
2024/01/24 06:05:02;;;;;;;0.20;0.20;;;;;;;2.70;89.20;95719.91;5033855;28;20638;-79
2024/01/24 06:07:29;;;;;;;0.50;0.50;;;;;;;2.57;89.70;95721.09;5037529;28;20196;-79
2024/01/24 06:09:57;;;;;;;0.20;0.20;;;;;;;2.63;89.26;95705.91;5033073;28;20212;-80
2024/01/24 06:12:24;;;;;;;0.20;0.20;;;;;;;2.50;89.37;95715.13;5032814;28;20200;-83
2024/01/24 06:14:52;;;;;;;0.30;0.30;;;;;;;2.63;89.34;95714.72;5034427;28;20653;-81
2024/01/24 06:17:19;;;;;;;0.20;0.20;;;;;;;2.81;88.46;95722.44;5035213;28;20311;-79
2024/01/24 06:19:45;;;;;;;0.30;0.30;;;;;;;2.70;88.49;95719.91;5040875;28;20632;-79
2024/01/24 06:22:12;;;;;;;0.30;0.30;;;;;;;2.69;89.03;95724.44;5041758;28;20580;-81
2024/01/24 06:24:39;;;;;;;0.30;0.30;;;;;;;2.84;89.07;95711.22;5049878;28;20569;-80
2024/01/24 06:27:08;;;;;;;0.30;0.30;;;;;;;2.71;88.81;95714.31;5045565;28;20211;-81
2024/01/24 06:29:35;;;;;;;0.20;0.20;;;;;;;2.67;88.44;95715.84;5047244;28;20282;-80
2024/01/24 06:32:02;;;;;;;0.20;0.20;;;;;;;2.48;89.11;95706.53;5047262;28;20216;-79
2024/01/24 06:34:29;;;;;;;0.20;0.20;;;;;;;2.57;89.07;95704.25;5049228;28;20230;-76
2024/01/24 06:36:56;;;;;;;0.20;0.20;;;;;;;2.67;88.63;95705.16;5033642;28;20663;-81
2024/01/24 06:39:24;;;;;;;0.20;0.20;;;;;;;2.67;88.79;95710.50;5032494;28;20204;-80
2024/01/24 06:41:50;;;;;;;0.20;0.20;;;;;;;2.65;88.56;95707.28;5030994;28;20212;-80
2024/01/24 06:44:19;;;;;;;0.65;0.65;;;;;;;2.76;88.97;95709.00;5037291;28;20311;-79
2024/01/24 06:46:47;;;;;;;0.20;0.20;;;;;;;2.77;88.25;95710.59;5032800;28;20525;-80
2024/01/24 06:49:15;;;;;;;0.30;0.30;;;;;;;2.91;88.02;95711.00;5032741;28;20200;-78
2024/01/24 06:51:42;;;;;;;0.20;0.20;;;;;;;2.90;87.38;95709.41;5031320;28;20223;-80
2024/01/24 06:54:12;;;;;;;4.85;0.55;;;;;;;2.82;87.26;95713.34;5037292;28;20196;-81
2024/01/24 06:56:39;;;;;;;0.20;0.20;;;;;;;2.96;87.22;95715.63;5031512;28;20296;-80
2024/01/24 06:59:06;;;;;;;0.20;0.20;;;;;;;2.96;86.93;95715.63;5031571;28;20224;-80
2024/01/24 07:01:35;;;;;;;0.30;0.30;;;;;;;3.13;87.23;95708.28;5031753;28;20573;-80
2024/01/24 07:04:02;;;;;;;0.20;0.20;;;;;;;3.28;86.10;95705.72;5028228;28;20212;-79
2024/01/24 07:06:29;;;;;;;0.20;0.20;;;;;;;3.14;86.77;95704.56;5031577;28;20205;-80
2024/01/24 07:08:56;;;;;;;0.45;0.45;;;;;;;3.46;85.62;95702.66;5042874;28;20290;-79
2024/01/24 07:11:23;;;;;;;0.20;0.20;;;;;;;3.42;84.68;95698.06;5047256;28;20655;-80
2024/01/24 07:13:51;;;;;;;1.45;1.00;;;;;;;3.47;84.60;95692.78;5032711;28;20225;-77
2024/01/24 07:16:18;;;;;;;0.25;0.25;;;;;;;3.51;84.76;95693.88;5030766;28;20204;-76
2024/01/24 07:18:46;;;;;;;0.30;0.30;;;;;;;3.85;83.67;95675.59;5045622;28;20227;-81
2024/01/24 07:21:15;;;;;;;0.43;0.43;;;;;;;3.73;83.99;95693.75;5053480;28;20218;-81
2024/01/24 07:23:42;;;;;;;0.20;0.20;;;;;;;3.53;85.16;95697.91;5053390;28;20265;-82
2024/01/24 07:26:09;;;;;;;0.20;0.20;;;;;;;3.90;83.77;95702.44;5059135;28;20564;-80
2024/01/24 07:28:35;;;;;;;0.10;0.10;;;;;;;4.05;82.06;95699.84;5045194;28;20201;-82
2024/01/24 07:31:02;;;;;;;0.20;0.20;;;;;;;4.09;82.37;95700.97;5054149;28;20223;-80
2024/01/24 07:33:29;;;;;;;0.20;0.20;;;;;;;4.24;81.74;95708.25;5048570;28;20223;-82
2024/01/24 07:35:57;;;;;;;0.20;0.20;;;;;;;4.36;80.67;95705.38;5055422;28;20261;-82
2024/01/24 07:38:24;;;;;;;0.20;0.20;;;;;;;4.32;80.74;95723.06;5043038;28;20231;-80
2024/01/24 07:40:51;;;;;;;0.35;0.35;;;;;;;4.37;79.61;95723.09;5058104;28;20211;-81
2024/01/24 07:43:19;;;;;;;0.35;0.35;;;;;;;4.26;80.01;95719.53;5036214;28;20196;-82
2024/01/24 07:45:46;;;;;;;0.30;0.30;;;;;;;4.52;79.74;95725.81;5052458;28;20211;-79
2024/01/24 07:48:14;;;;;;;0.20;0.20;;;;;;;4.59;79.08;95715.66;5042340;28;20595;-83
2024/01/24 07:50:42;;;;;;;0.52;0.52;;;;;;;4.62;79.67;95720.50;5046090;28;20208;-81
2024/01/24 07:53:11;;;;;;;0.20;0.20;;;;;;;4.44;80.64;95735.19;5048377;28;20303;-84
2024/01/24 07:55:38;;;;;;;0.20;0.20;;;;;;;4.49;80.19;95729.03;5037836;28;20219;-84
2024/01/24 07:58:05;;;;;;;0.20;0.20;;;;;;;4.90;78.21;95728.09;5045126;28;20545;-82
2024/01/24 08:00:32;;;;;;;0.30;0.30;;;;;;;4.43;78.96;95738.94;5035027;28;20660;-81
2024/01/24 08:02:59;;;;;;;0.20;0.20;;;;;;;4.45;80.69;95741.34;5047403;28;20243;-79
2024/01/24 08:05:26;;;;;;;0.20;0.20;;;;;;;4.61;80.54;95729.63;5033283;28;20219;-80
2024/01/24 08:07:52;;;;;;;0.20;0.20;;;;;;;4.54;80.58;95734.41;5040990;28;20204;-79
2024/01/24 08:10:21;;;;;;;0.63;0.63;;;;;;;5.02;79.99;95729.75;5032994;28;21297;-78
2024/01/24 08:12:49;;;;;;;0.20;0.20;;;;;;;5.30;77.48;95734.63;5048418;28;20241;-80
2024/01/24 08:15:16;;;;;;;0.20;0.20;;;;;;;4.98;78.15;95741.00;5037049;28;20625;-78
2024/01/24 08:17:43;;;;;;;0.20;0.20;;;;;;;4.68;79.65;95756.19;5052950;28;20296;-80
2024/01/24 08:20:11;;;;;;;0.77;0.55;;;;;;;4.45;80.34;95747.53;5038859;28;20203;-79
2024/01/24 08:22:39;;;;;;;0.40;0.40;;;;;;;4.79;79.75;95729.13;5052423;28;20210;-80
2024/01/24 08:25:07;;;;;;;0.30;0.30;;;;;;;4.49;80.60;95743.25;5038588;28;20550;-78
2024/01/24 08:27:36;;;;;;;0.35;0.35;;;;;;;4.79;79.92;95747.91;5052545;28;20611;-79
2024/01/24 08:30:03;;;;;;;0.20;0.20;;;;;;;4.92;79.21;95749.31;5045865;28;20220;-79
2024/01/24 08:32:30;;;;;;;0.40;0.40;;;;;;;4.51;79.50;95751.81;5057429;28;20238;-79
2024/01/24 08:34:57;;;;;;;0.50;0.50;;;;;;;4.67;80.36;95755.38;5035908;28;20231;-78
2024/01/24 08:37:24;;;;;;;0.20;0.20;;;;;;;4.75;80.15;95744.16;5047372;28;20874;-77
2024/01/24 08:39:51;;;;;;;0.20;0.20;;;;;;;4.61;80.67;95743.03;5036121;28;20624;-78
2024/01/24 08:42:18;;;;;;;0.20;0.20;;;;;;;4.91;80.14;95742.34;5031346;28;20220;-81
2024/01/24 08:44:46;;;;;;;0.35;0.35;;;;;;;4.86;78.90;95727.00;5051257;28;20208;-79
2024/01/24 08:47:13;;;;;;;0.43;0.43;;;;;;;4.66;78.80;95726.94;5061534;28;20215;-80
2024/01/24 08:49:40;;;;;;;0.30;0.30;;;;;;;4.43;80.74;95732.75;5046152;28;20201;-81
2024/01/24 08:52:07;;;;;;;0.75;0.50;;;;;;;4.45;80.46;95731.44;5040906;28;20318;-80
2024/01/24 08:54:33;;;;;;;2.83;1.25;;;;;;;4.37;79.64;95729.25;5033509;28;20208;-81
2024/01/24 08:57:00;;;;;;;0.30;0.30;;;;;;;4.46;81.01;95721.50;5030842;28;20220;-78
2024/01/24 08:59:29;;;;;;;0.63;0.63;;;;;;;4.50;79.84;95717.25;5030983;28;20599;-80
2024/01/24 09:01:57;;;;;;;1.20;1.10;;;;;;;4.79;79.53;95715.69;5049695;28;20298;-79
2024/01/24 09:04:25;;;;;;;4.03;0.47;;;;;;;4.54;81.14;95721.00;5046815;28;20210;-80
2024/01/24 09:06:52;;;;;;;7.32;0.50;;;;;;;4.65;80.29;95714.59;5037553;28;20672;-84
2024/01/24 09:09:19;;;;;;;0.43;0.40;;;;;;;4.81;79.08;95724.31;5047562;28;20226;-82
2024/01/24 09:11:46;;;;;;;0.20;0.20;;;;;;;4.65;79.52;95738.75;5048522;28;20237;-83
2024/01/24 09:14:13;;;;;;;0.47;0.47;;;;;;;4.52;80.51;95733.84;5046223;28;20211;-78
2024/01/24 09:16:41;;;;;;;1.27;0.90;;;;;;;4.73;79.74;95730.19;5040907;28;20212;-81
2024/01/24 09:19:09;;;;;;;0.52;0.52;;;;;;;4.71;80.59;95735.00;5059066;28;20257;-82
2024/01/24 09:21:39;;;;;;;0.75;0.75;;;;;;;4.52;80.64;95721.25;5052036;28;20219;-81
2024/01/24 09:24:06;;;;;;;1.15;1.15;;;;;;;4.66;81.13;95729.63;5049634;28;20598;-80
2024/01/24 09:26:33;;;;;;;0.20;0.20;;;;;;;4.82;80.20;95717.88;5039837;28;20213;-81
2024/01/24 09:29:00;;;;;;;0.40;0.40;;;;;;;4.49;80.23;95700.34;5049694;28;20211;-83
2024/01/24 09:31:27;;;;;;;0.20;0.20;;;;;;;4.87;79.66;95712.53;5055675;28;20219;-80
2024/01/24 09:33:53;;;;;;;0.20;0.20;;;;;;;4.57;80.88;95702.50;5041273;28;20575;-79
2024/01/24 09:36:23;;;;;;;0.20;0.20;;;;;;;4.75;80.51;95687.81;5043317;28;20200;-79
2024/01/24 09:38:50;;;;;;;0.20;0.20;;;;;;;4.90;79.42;95695.91;5037573;28;20235;-78
2024/01/24 09:41:19;;;;;;;0.40;0.40;;;;;;;5.11;79.20;95685.16;5032212;28;20208;-79
2024/01/24 09:43:47;;;;;;;0.20;0.20;;;;;;;5.02;80.44;95690.28;5034395;28;20258;-81
2024/01/24 09:46:16;;;;;;;1.17;0.98;;;;;;;4.71;80.47;95681.34;5047128;28;20708;-80
2024/01/24 09:48:46;;;;;;;0.93;0.93;;;;;;;5.14;79.81;95671.22;5031455;28;20304;-78
2024/01/24 09:51:14;;;;;;;0.20;0.20;;;;;;;5.00;79.78;95674.44;5032229;28;20254;-78
2024/01/24 09:53:46;;;;;;;0.20;0.20;;;;;;;4.90;79.42;95679.78;5034698;28;20219;-78
2024/01/24 09:56:14;;;;;;;0.40;0.40;;;;;;;4.80;79.80;95669.00;5026081;28;20565;-78
2024/01/24 09:58:41;;;;;;;4.38;1.70;;;;;;;4.63;78.90;95666.56;5039623;28;20228;-79
2024/01/24 10:01:13;;;;;;;0.20;0.20;;;;;;;4.87;79.22;95666.88;5034759;28;20208;-80
2024/01/24 10:03:44;;;;;;;0.20;0.20;;;;;;;5.22;78.53;95665.31;5041196;28;20224;-82
2024/01/24 10:06:15;;;;;;;2.28;1.42;;;;;;;4.92;77.56;95666.09;5056082;28;20221;-85
2024/01/24 10:08:43;;;;;;;0.43;0.43;;;;;;;4.77;77.79;95658.81;5046513;28;20192;-85
2024/01/24 10:11:12;;;;;;;1.58;1.48;;;;;;;4.69;77.96;95650.47;5043909;28;20236;-85
2024/01/24 10:13:39;;;;;;;0.20;0.20;;;;;;;5.10;77.63;95654.00;5052930;28;20242;-84
2024/01/24 10:16:07;;;;;;;0.20;0.20;;;;;;;5.03;78.24;95658.84;5067580;28;20202;-84
2024/01/24 10:18:35;;;;;;;0.82;0.82;;;;;;;4.74;77.46;95653.16;5047015;28;20318;-80
2024/01/24 10:21:03;;;;;;;2.88;2.15;;;;;;;4.68;78.14;95640.81;5053996;28;20200;-84
2024/01/24 10:23:30;;;;;;;0.45;0.45;;;;;;;4.69;79.25;95635.16;5051988;28;20214;-84
2024/01/24 10:25:59;;;;;;;1.65;1.55;;;;;;;4.57;79.98;95637.28;5062423;28;20207;-84
2024/01/24 10:28:26;;;;;;;0.50;0.50;;;;;;;4.73;79.83;95635.47;5048894;28;20211;-84
2024/01/24 10:30:53;;;;;;;0.20;0.20;;;;;;;5.01;79.05;95624.22;5046269;28;20195;-86
2024/01/24 10:33:21;;;;;;;0.50;0.50;;;;;;;4.86;78.83;95635.75;5046630;28;20216;-83
2024/01/24 10:35:48;;;;;;;0.30;0.30;;;;;;;4.91;79.30;95611.59;5046123;28;20223;-86
2024/01/24 10:38:21;;;;;;;3.03;1.58;;;;;;;4.81;79.13;95611.56;5058719;28;20204;-84
2024/01/24 10:40:53;;;;;;;1.60;0.55;;;;;;;4.79;79.30;95613.72;5042847;28;20205;-83
2024/01/24 10:43:23;;;;;;;6.55;1.98;;;;;;;4.85;78.36;95611.84;5055097;28;20192;-81
2024/01/24 10:45:51;;;;;;;0.40;0.40;;;;;;;4.97;78.45;95610.50;5056925;28;20204;-84
2024/01/24 10:48:18;;;;;;;0.30;0.30;;;;;;;4.91;78.43;95600.88;5052111;28;20192;-81
2024/01/24 10:50:45;;;;;;;1.55;1.10;;;;;;;5.04;76.69;95582.59;5053332;28;20204;-84
2024/01/24 10:53:16;;;;;;;0.20;0.20;;;;;;;5.13;78.21;95597.09;5043283;28;20209;-81
2024/01/24 10:55:43;;;;;;;0.32;0.32;;;;;;;5.17;77.59;95590.91;5061429;28;20212;-82
2024/01/24 10:58:11;;;;;;;0.47;0.45;;;;;;;5.24;76.91;95585.25;5058851;28;20201;-83
2024/01/24 11:00:41;;;;;;;0.57;0.57;;;;;;;5.53;76.73;95589.00;5045524;28;20230;-80
2024/01/24 11:03:09;;;;;;;1.10;1.05;;;;;;;5.69;75.83;95579.81;5049037;28;20531;-84
2024/01/24 11:05:40;;;;;;;0.70;0.70;;;;;;;5.23;77.12;95576.41;5055258;28;20234;-83
2024/01/24 11:08:23;;;;;;;0.68;0.57;;;;;;;5.11;76.77;95564.31;5058254;28;20208;-82
2024/01/24 11:10:51;;;;;;;0.47;0.47;;;;;;;5.18;76.32;95562.19;5033374;28;20247;-84
2024/01/24 11:13:19;;;;;;;0.20;0.20;;;;;;;5.40;75.41;95554.63;5047526;28;20200;-82
2024/01/24 11:15:48;;;;;;;1.33;1.23;;;;;;;5.29;75.70;95563.78;5037702;28;20678;-82
2024/01/24 11:18:22;;;;;;;0.45;0.45;;;;;;;5.50;75.96;95559.97;5045093;28;20251;-83
2024/01/24 11:20:52;;;;;;;0.85;0.85;;;;;;;5.25;76.67;95568.06;5036790;28;20203;-80
2024/01/24 11:23:40;;;;;;;0.32;0.32;;;;;;;5.14;76.27;95545.00;5048514;28;20201;-81
2024/01/24 11:26:09;;;;;;;0.40;0.35;;;;;;;5.17;76.39;95560.56;5040242;28;20262;-81
2024/01/24 11:28:36;;;;;;;0.50;0.50;;;;;;;5.18;76.85;95546.88;5055541;28;20569;-83
2024/01/24 11:31:06;;;;;;;0.60;0.60;;;;;;;5.26;76.96;95548.19;5042783;28;20227;-82
2024/01/24 11:33:33;;;;;;;0.57;0.57;;;;;;;5.11;77.03;95532.09;5045340;28;20227;-81
2024/01/24 11:36:02;;;;;;;0.43;0.43;;;;;;;5.30;76.66;95533.16;5056549;28;20211;-81
2024/01/24 11:38:36;;;;;;;0.70;0.70;;;;;;;5.42;76.08;95533.66;5046111;28;20250;-78
2024/01/24 11:41:23;;;;;;;0.20;0.20;;;;;;;5.60;75.46;95535.75;5033489;28;20612;-79
2024/01/24 11:43:49;;;;;;;0.20;0.20;;;;;;;5.52;75.58;95530.94;5043449;28;20203;-81